Time;durP1;ratioP1;P1;durP2;ratioP2;P2;SDS_P1;SDS_P2;PMS_P1;PMS_P2;Temp;Humidity;BMP_temperature;BMP_pressure;BME280_temperature;BME280_humidity;BME280_pressure;Samples;Min_cycle;Max_cycle;Signal;HPM_P1;HPM_P2
2021/03/24 00:01:06;;;;;;;33.65;20.15;;;6.90;77.50;;;;;;5118406;27;20487;-75
2021/03/24 00:03:31;;;;;;;37.03;22.20;;;6.80;77.60;;;;;;5118678;27;20019;-75
2021/03/24 00:05:57;;;;;;;39.38;21.42;;;6.80;77.80;;;;;;5118733;27;20558;-75
2021/03/24 00:08:23;;;;;;;39.70;22.90;;;6.80;78.00;;;;;;5118340;27;20035;-75
2021/03/24 00:10:50;;;;;;;37.92;22.05;;;6.80;78.00;;;;;;5137215;27;20027;-75
2021/03/24 00:13:16;;;;;;;40.20;23.15;;;6.80;78.00;;;;;;5118606;27;20035;-75
2021/03/24 00:15:42;;;;;;;39.92;22.58;;;6.70;77.80;;;;;;5136912;27;20039;-75
2021/03/24 00:18:09;;;;;;;37.83;21.38;;;6.80;78.00;;;;;;5118652;27;20110;-75
2021/03/24 00:20:37;;;;;;;41.55;22.77;;;6.70;78.00;;;;;;5136431;27;20023;-75
2021/03/24 00:23:04;;;;;;;40.92;22.50;;;6.70;78.10;;;;;;5118983;27;20842;-75
2021/03/24 00:25:29;;;;;;;39.78;23.67;;;6.60;78.10;;;;;;5136911;27;20031;-75
2021/03/24 00:27:55;;;;;;;39.65;21.65;;;6.60;78.20;;;;;;5081444;28;20049;-75
2021/03/24 00:30:26;;;;;;;39.22;21.67;;;6.60;78.70;;;;;;5117761;27;20448;-75
2021/03/24 00:32:51;;;;;;;35.72;22.27;;;6.50;78.00;;;;;;5136366;27;20391;-75
2021/03/24 00:35:18;;;;;;;37.55;21.95;;;6.50;78.00;;;;;;5136831;27;20023;-75
2021/03/24 00:37:43;;;;;;;40.72;22.38;;;6.50;78.10;;;;;;5136500;27;20376;-75
2021/03/24 00:40:17;;;;;;;40.35;24.00;;;6.50;78.20;;;;;;5117869;27;20051;-75
2021/03/24 00:42:42;;;;;;;46.75;24.10;;;6.50;78.50;;;;;;5117817;27;20027;-75
2021/03/24 00:45:09;;;;;;;46.83;25.98;;;6.50;78.60;;;;;;5117708;27;20030;-75
2021/03/24 00:47:34;;;;;;;50.67;25.92;;;6.50;78.80;;;;;;5117066;27;20031;-75
2021/03/24 00:50:01;;;;;;;44.03;25.58;;;6.50;78.90;;;;;;5096768;28;20052;-75
2021/03/24 00:52:26;;;;;;;39.83;24.20;;;6.40;78.90;;;;;;5130461;27;20027;-75
2021/03/24 00:54:52;;;;;;;47.00;24.48;;;6.40;79.50;;;;;;5118105;27;20526;-75
2021/03/24 00:57:18;;;;;;;41.97;24.40;;;6.40;78.80;;;;;;5135962;27;20055;-75
2021/03/24 00:59:43;;;;;;;50.67;25.65;;;6.40;78.80;;;;;;5136363;27;20038;-75
2021/03/24 01:02:09;;;;;;;45.50;25.27;;;6.30;78.90;;;;;;5089253;28;20023;-75
2021/03/24 01:04:35;;;;;;;44.55;25.58;;;6.30;79.70;;;;;;5112553;27;20038;-75
2021/03/24 01:07:00;;;;;;;47.80;25.13;;;6.30;79.20;;;;;;5116335;27;20030;-75
2021/03/24 01:09:26;;;;;;;46.90;26.65;;;6.30;79.30;;;;;;5100474;27;20546;-75
2021/03/24 01:12:01;;;;;;;42.80;24.88;;;6.30;79.50;;;;;;5100456;27;20383;-75
2021/03/24 01:14:27;;;;;;;40.13;23.88;;;6.20;79.50;;;;;;5115145;27;20027;-75
2021/03/24 01:16:52;;;;;;;50.90;24.27;;;6.20;79.40;;;;;;5096763;28;20042;-75
2021/03/24 01:19:18;;;;;;;44.90;25.27;;;6.20;79.40;;;;;;5100095;27;20030;-75
2021/03/24 01:21:44;;;;;;;43.95;24.80;;;6.10;79.40;;;;;;5099983;27;20079;-75
2021/03/24 01:24:09;;;;;;;43.58;24.65;;;6.10;79.50;;;;;;5117383;27;20471;-75
2021/03/24 01:26:35;;;;;;;44.60;25.25;;;6.10;79.50;;;;;;5135510;27;20015;-75
2021/03/24 01:29:00;;;;;;;40.63;23.70;;;6.10;79.60;;;;;;5117412;27;20031;-75
2021/03/24 01:31:28;;;;;;;41.88;24.98;;;6.10;79.60;;;;;;5117242;27;20023;-75
2021/03/24 01:33:54;;;;;;;46.17;26.15;;;6.00;79.60;;;;;;5135249;27;20063;-75
2021/03/24 01:36:21;;;;;;;45.53;24.40;;;6.00;79.70;;;;;;5134971;27;20020;-75
2021/03/24 01:38:47;;;;;;;46.13;25.65;;;6.00;79.90;;;;;;5100103;27;20065;-75
2021/03/24 01:41:13;;;;;;;43.22;25.13;;;6.00;79.90;;;;;;5116461;27;20068;-75
2021/03/24 01:43:39;;;;;;;47.22;25.67;;;6.00;80.00;;;;;;5117037;27;20027;-75
2021/03/24 01:46:19;;;;;;;48.38;25.65;;;6.00;80.10;;;;;;5135007;27;20467;-75
2021/03/24 01:48:58;;;;;;;46.42;25.95;;;5.90;80.20;;;;;;5116449;27;20023;-75
2021/03/24 01:51:48;;;;;;;41.35;24.58;;;5.90;80.20;;;;;;5116401;27;20130;-75
2021/03/24 01:54:20;;;;;;;46.35;25.23;;;5.90;80.20;;;;;;5114475;28;20054;-75
2021/03/24 01:56:50;;;;;;;46.35;26.95;;;5.80;80.10;;;;;;5115979;27;20083;-75
2021/03/24 01:59:16;;;;;;;47.55;25.40;;;5.80;80.30;;;;;;5134513;27;20464;-75
2021/03/24 02:01:43;;;;;;;44.08;25.52;;;5.80;80.30;;;;;;5134920;27;20615;-75
2021/03/24 02:04:09;;;;;;;47.58;26.58;;;5.80;80.30;;;;;;5116432;27;20026;-75
2021/03/24 02:06:46;;;;;;;57.15;28.65;;;5.80;80.40;;;;;;5095958;28;20061;-75
2021/03/24 02:09:39;;;;;;;57.58;26.58;;;5.80;80.60;;;;;;5130567;27;20356;-75
2021/03/24 02:12:14;;;;;;;46.97;26.92;;;5.70;80.70;;;;;;5123797;27;20470;-75
2021/03/24 02:14:47;;;;;;;46.80;27.50;;;5.70;80.80;;;;;;5116043;27;20029;-75
2021/03/24 02:17:15;;;;;;;45.78;25.20;;;5.70;80.90;;;;;;5134431;27;20497;-75
2021/03/24 02:19:52;;;;;;;49.15;26.00;;;5.70;80.80;;;;;;5134360;27;20084;-75
2021/03/24 02:22:23;;;;;;;49.88;27.52;;;5.70;81.00;;;;;;5115438;27;20020;-75
2021/03/24 02:24:59;;;;;;;44.97;26.67;;;5.70;81.00;;;;;;5134535;27;20033;-75
2021/03/24 02:27:39;;;;;;;49.05;27.48;;;5.70;81.00;;;;;;5115733;27;20457;-75
2021/03/24 02:30:13;;;;;;;45.78;26.33;;;5.70;81.10;;;;;;5134636;27;20027;-75
2021/03/24 02:32:45;;;;;;;43.90;25.27;;;5.60;80.90;;;;;;5115104;27;20023;-75
2021/03/24 02:35:16;;;;;;;55.28;29.08;;;5.60;81.00;;;;;;5134675;27;20027;-75
2021/03/24 02:37:43;;;;;;;44.92;26.40;;;5.60;81.10;;;;;;5133712;27;20019;-75
2021/03/24 02:40:16;;;;;;;49.20;28.13;;;5.50;81.20;;;;;;5134050;27;20019;-75
2021/03/24 02:42:44;;;;;;;54.92;28.38;;;5.50;81.30;;;;;;5122343;27;20042;-75
2021/03/24 02:45:17;;;;;;;50.70;28.48;;;5.50;81.30;;;;;;5134100;27;20088;-75
2021/03/24 02:47:44;;;;;;;54.33;27.67;;;5.40;81.40;;;;;;5115969;27;20023;-75
2021/03/24 02:50:12;;;;;;;45.35;27.17;;;5.40;81.50;;;;;;5114988;27;20126;-75
2021/03/24 02:52:38;;;;;;;46.47;26.50;;;5.40;81.60;;;;;;5133881;27;20025;-75
2021/03/24 02:55:07;;;;;;;47.50;26.88;;;5.30;81.50;;;;;;5114858;27;20019;-75
2021/03/24 02:57:32;;;;;;;45.40;26.52;;;5.40;81.70;;;;;;5114673;27;20061;-75
2021/03/24 02:59:58;;;;;;;45.72;27.73;;;5.30;81.50;;;;;;5114651;27;20892;-75
2021/03/24 03:02:28;;;;;;;49.00;26.85;;;5.40;81.70;;;;;;5115085;27;20027;-75
2021/03/24 03:05:05;;;;;;;52.13;28.17;;;5.40;81.70;;;;;;5114424;27;20542;-75
2021/03/24 03:07:36;;;;;;;50.45;28.80;;;5.30;81.80;;;;;;5133021;27;20071;-75
2021/03/24 03:10:08;;;;;;;44.75;28.05;;;5.30;81.80;;;;;;5115177;27;20023;-75
2021/03/24 03:12:45;;;;;;;50.13;29.30;;;5.30;82.00;;;;;;5133756;27;20027;-75
2021/03/24 03:15:38;;;;;;;47.20;27.67;;;5.20;82.10;;;;;;5133479;27;20349;-75
2021/03/24 03:18:29;;;;;;;45.22;27.40;;;5.20;82.90;;;;;;5113303;28;20100;-75
2021/03/24 03:20:59;;;;;;;54.05;28.52;;;5.20;82.40;;;;;;5109201;28;20027;-75
2021/03/24 03:23:30;;;;;;;51.55;28.70;;;5.20;82.30;;;;;;5132477;27;20023;-75
2021/03/24 03:26:02;;;;;;;49.35;28.77;;;5.20;82.40;;;;;;5133608;28;20039;-75
2021/03/24 03:28:29;;;;;;;50.58;29.10;;;5.20;82.40;;;;;;5133666;27;20019;-75
2021/03/24 03:30:57;;;;;;;44.63;27.80;;;5.20;82.30;;;;;;5118971;27;20027;-75
2021/03/24 03:33:26;;;;;;;47.33;28.08;;;5.10;82.50;;;;;;5119550;27;20031;-75
2021/03/24 03:35:53;;;;;;;57.22;30.08;;;5.20;82.60;;;;;;5119542;27;20055;-75
2021/03/24 03:38:20;;;;;;;48.65;28.15;;;5.10;82.60;;;;;;5119125;27;20019;-75
2021/03/24 03:40:47;;;;;;;48.92;28.42;;;5.10;82.70;;;;;;5119244;27;20038;-75
2021/03/24 03:43:16;;;;;;;52.55;29.65;;;5.10;82.80;;;;;;5119344;27;20038;-75
2021/03/24 03:45:43;;;;;;;;;;;5.10;82.90;;;;;;5138052;27;20019;-75
2021/03/24 03:48:11;;;;;;;48.72;26.13;;;5.00;82.60;;;;;;5137574;27;20380;-75
2021/03/24 03:50:37;;;;;;;44.85;26.67;;;5.00;82.80;;;;;;5118515;27;20047;-75
2021/03/24 03:53:21;;;;;;;51.60;27.52;;;5.00;82.80;;;;;;5137574;27;20027;-75
2021/03/24 03:56:05;;;;;;;47.13;27.30;;;5.00;82.80;;;;;;5137446;27;20027;-75
2021/03/24 03:58:42;;;;;;;45.55;28.40;;;5.00;82.70;;;;;;5132307;27;20023;-75
2021/03/24 04:01:36;;;;;;;47.20;27.95;;;5.00;82.70;;;;;;5126232;27;20046;-75
2021/03/24 04:04:21;;;;;;;48.38;27.48;;;4.90;82.70;;;;;;5118852;27;20019;-75
2021/03/24 04:06:55;;;;;;;46.85;27.30;;;4.90;82.80;;;;;;5136993;27;20022;-75
2021/03/24 04:09:21;;;;;;;51.40;26.60;;;4.90;82.70;;;;;;5118437;27;20031;-75
2021/03/24 04:11:52;;;;;;;43.15;26.27;;;4.90;82.80;;;;;;5118739;27;20424;-75
2021/03/24 04:14:27;;;;;;;46.63;27.55;;;4.90;82.90;;;;;;5117881;27;20025;-75
2021/03/24 04:16:54;;;;;;;40.88;26.02;;;4.90;82.90;;;;;;5137168;27;20019;-75
2021/03/24 04:19:25;;;;;;;44.75;25.90;;;4.80;82.90;;;;;;5136528;27;20027;-75
2021/03/24 04:21:55;;;;;;;47.53;26.77;;;4.80;82.90;;;;;;5128317;27;20063;-75
2021/03/24 04:24:26;;;;;;;46.63;27.02;;;4.80;82.80;;;;;;5136864;27;20027;-75
2021/03/24 04:26:56;;;;;;;51.25;27.33;;;4.80;82.90;;;;;;5136878;27;20042;-75
2021/03/24 04:29:34;;;;;;;45.10;26.85;;;4.70;82.80;;;;;;5136507;27;20391;-75
2021/03/24 04:32:02;;;;;;;48.47;27.38;;;4.70;82.90;;;;;;5117957;27;20099;-75
2021/03/24 04:34:28;;;;;;;45.10;26.23;;;4.70;83.00;;;;;;5136640;27;20088;-75
2021/03/24 04:37:28;;;;;;;50.28;28.13;;;4.70;83.00;;;;;;5118152;27;20031;-75
2021/03/24 04:39:53;;;;;;;42.97;26.60;;;4.70;83.30;;;;;;5105971;27;20487;-75
2021/03/24 04:42:29;;;;;;;43.40;26.58;;;4.70;83.80;;;;;;5136968;27;20156;-75
2021/03/24 04:44:57;;;;;;;44.50;26.10;;;4.70;83.90;;;;;;5136306;27;20038;-75
2021/03/24 04:47:24;;;;;;;42.85;26.27;;;4.60;83.30;;;;;;5100982;27;20065;-75
2021/03/24 04:50:16;;;;;;;42.42;25.88;;;4.60;83.30;;;;;;5129321;27;20039;-75
2021/03/24 04:52:42;;;;;;;42.50;25.73;;;4.60;83.40;;;;;;5135849;27;20094;-75
2021/03/24 04:55:14;;;;;;;50.63;27.92;;;4.60;83.30;;;;;;5117614;27;20030;-75
2021/03/24 04:57:41;;;;;;;51.20;26.75;;;4.60;83.40;;;;;;5117715;27;20062;-75
2021/03/24 05:00:23;;;;;;;42.58;25.58;;;4.60;83.50;;;;;;5117141;27;20118;-75
2021/03/24 05:02:54;;;;;;;43.42;25.85;;;4.60;83.60;;;;;;5116263;27;20019;-75
2021/03/24 05:05:30;;;;;;;47.33;26.58;;;4.60;83.60;;;;;;5135430;27;20042;-75
2021/03/24 05:08:31;;;;;;;46.05;26.70;;;4.50;83.60;;;;;;5135193;27;20023;-75
2021/03/24 05:11:01;;;;;;;45.03;26.42;;;4.50;83.70;;;;;;5130552;27;20398;-75
2021/03/24 05:13:32;;;;;;;45.88;26.20;;;4.50;83.70;;;;;;5097398;28;20028;-75
2021/03/24 05:16:20;;;;;;;44.40;27.52;;;4.50;83.70;;;;;;5133202;27;20517;-75
2021/03/24 05:18:52;;;;;;;49.00;25.88;;;4.50;83.80;;;;;;5116353;27;20059;-75
2021/03/24 05:21:46;;;;;;;48.70;27.38;;;4.50;83.70;;;;;;5135045;27;20030;-75
2021/03/24 05:24:21;;;;;;;46.70;26.27;;;4.50;83.80;;;;;;5117093;27;20057;-75
2021/03/24 05:26:57;;;;;;;46.58;25.45;;;4.40;83.70;;;;;;5135431;27;20084;-74
2021/03/24 05:29:27;;;;;;;45.55;26.80;;;4.40;83.70;;;;;;5111567;27;20082;-74
2021/03/24 05:31:53;;;;;;;;;;;4.40;83.70;;;;;;5135720;27;20026;-75
2021/03/24 05:34:29;;;;;;;46.00;26.70;;;4.40;83.60;;;;;;5116176;27;19933;-75
2021/03/24 05:36:55;;;;;;;46.60;25.77;;;4.30;83.70;;;;;;5116664;27;20027;-75
2021/03/24 05:39:31;;;;;;;43.00;25.25;;;4.30;83.70;;;;;;5134836;27;20116;-75
2021/03/24 05:42:08;;;;;;;49.72;26.27;;;4.30;83.80;;;;;;5134466;27;20088;-75
2021/03/24 05:45:11;;;;;;;43.15;25.00;;;4.30;83.90;;;;;;5134804;27;20164;-75
2021/03/24 05:48:03;;;;;;;38.22;22.48;;;4.30;84.00;;;;;;5115936;27;20387;-75
2021/03/24 05:50:50;;;;;;;38.58;21.90;;;4.30;84.00;;;;;;5103329;28;20043;-73
2021/03/24 05:53:39;;;;;;;42.42;23.55;;;4.30;84.00;;;;;;5093417;28;20024;-73
2021/03/24 05:56:13;;;;;;;44.10;25.20;;;4.40;84.10;;;;;;5092483;28;20491;-73
2021/03/24 05:58:54;;;;;;;43.67;24.17;;;4.40;84.00;;;;;;5093575;28;20074;-73
2021/03/24 06:01:25;;;;;;;41.95;25.08;;;4.40;84.00;;;;;;5091342;28;20027;-73
2021/03/24 06:04:20;;;;;;;41.20;24.38;;;4.40;84.00;;;;;;5093548;28;20031;-74
2021/03/24 06:07:24;;;;;;;43.53;23.38;;;4.40;84.30;;;;;;5093359;28;20027;-73
2021/03/24 06:10:14;;;;;;;42.17;23.42;;;4.40;84.30;;;;;;5085069;28;20499;-73
2021/03/24 06:13:01;;;;;;;37.85;23.23;;;4.50;84.40;;;;;;5093639;28;20028;-74
2021/03/24 06:15:43;;;;;;;43.10;23.17;;;4.50;84.40;;;;;;5092986;28;20115;-73
2021/03/24 06:18:23;;;;;;;43.20;24.40;;;4.50;84.20;;;;;;5087601;28;20028;-73
2021/03/24 06:21:07;;;;;;;42.85;24.98;;;4.60;84.40;;;;;;5091986;28;20059;-73
2021/03/24 06:23:40;;;;;;;48.10;25.73;;;4.60;84.40;;;;;;5092296;28;20036;-73
2021/03/24 06:26:43;;;;;;;39.75;24.42;;;4.70;84.30;;;;;;5091965;28;20028;-73
2021/03/24 06:29:30;;;;;;;39.92;23.52;;;4.80;84.40;;;;;;5085049;28;20514;-73
2021/03/24 06:32:34;;;;;;;47.58;25.17;;;4.80;84.20;;;;;;5087482;28;20020;-73
2021/03/24 06:35:18;;;;;;;47.88;24.63;;;4.90;84.20;;;;;;5093215;28;20095;-73
2021/03/24 06:37:55;;;;;;;38.28;23.38;;;5.00;83.90;;;;;;5092851;28;20100;-74
2021/03/24 06:40:21;;;;;;;39.85;23.42;;;5.10;84.00;;;;;;5091444;28;20078;-74
2021/03/24 06:43:01;;;;;;;43.53;25.10;;;5.20;83.70;;;;;;5091647;28;20504;-73
2021/03/24 06:45:27;;;;;;;40.97;24.17;;;5.30;83.80;;;;;;5082776;28;20028;-73
2021/03/24 06:48:12;;;;;;;42.13;25.60;;;5.40;83.70;;;;;;5093295;28;20043;-73
2021/03/24 06:51:05;;;;;;;41.85;23.75;;;5.50;83.70;;;;;;5094689;27;20043;-74
2021/03/24 06:53:58;;;;;;;38.63;23.85;;;5.60;83.70;;;;;;5134143;27;20027;-73
2021/03/24 06:56:38;;;;;;;46.67;26.05;;;5.70;83.30;;;;;;5133431;27;20022;-74
2021/03/24 06:59:41;;;;;;;43.33;24.10;;;5.80;83.10;;;;;;5133778;27;20375;-74
2021/03/24 07:02:51;;;;;;;43.72;25.42;;;6.00;83.60;;;;;;5133584;27;20020;-74
2021/03/24 07:05:45;;;;;;;49.00;26.00;;;6.10;82.80;;;;;;5113920;27;20026;-73
2021/03/24 07:08:10;;;;;;;50.17;27.25;;;6.20;82.80;;;;;;5131078;27;20019;-74
2021/03/24 07:10:55;;;;;;;42.55;25.50;;;6.30;82.60;;;;;;5133176;27;20478;-74
2021/03/24 07:13:48;;;;;;;43.40;24.67;;;6.40;82.50;;;;;;5133514;27;20054;-74
2021/03/24 07:16:40;;;;;;;41.28;25.17;;;6.50;82.20;;;;;;5113386;28;20054;-73
2021/03/24 07:19:26;;;;;;;41.75;23.13;;;6.70;81.90;;;;;;5125452;27;20019;-74
2021/03/24 07:22:11;;;;;;;39.88;23.65;;;6.80;81.60;;;;;;5133683;27;20083;-73
2021/03/24 07:25:12;;;;;;;36.60;21.88;;;6.90;81.20;;;;;;5133463;28;20027;-74
2021/03/24 07:28:09;;;;;;;43.97;24.45;;;7.00;80.90;;;;;;5133741;27;20027;-73
2021/03/24 07:31:05;;;;;;;39.30;23.38;;;7.10;80.90;;;;;;5133277;27;20042;-74
2021/03/24 07:33:43;;;;;;;40.15;23.55;;;7.20;80.70;;;;;;5107637;28;20048;-74
2021/03/24 07:36:36;;;;;;;40.80;24.33;;;7.30;80.50;;;;;;5133723;27;20026;-74
2021/03/24 07:39:23;;;;;;;43.95;24.35;;;7.50;81.00;;;;;;5133105;27;20023;-74
2021/03/24 07:42:13;;;;;;;40.65;23.20;;;7.60;79.90;;;;;;5133535;27;20024;-74
2021/03/24 07:45:06;;;;;;;42.67;23.13;;;7.80;79.50;;;;;;5133087;27;20072;-74
2021/03/24 07:47:52;;;;;;;38.13;23.73;;;7.90;79.10;;;;;;5114756;28;20023;-74
2021/03/24 07:50:43;;;;;;;39.72;23.73;;;8.00;78.70;;;;;;5085988;28;20131;-74
2021/03/24 07:53:22;;;;;;;37.67;22.27;;;8.20;78.50;;;;;;5090914;28;20050;-74
2021/03/24 07:56:00;;;;;;;42.80;25.27;;;8.30;78.20;;;;;;5092083;28;20085;-74
2021/03/24 07:59:02;;;;;;;46.53;26.08;;;8.40;77.90;;;;;;5092238;28;20032;-74
2021/03/24 08:01:52;;;;;;;48.00;27.67;;;8.50;77.60;;;;;;5092108;28;20020;-74
2021/03/24 08:04:33;;;;;;;42.85;26.05;;;8.70;77.10;;;;;;5090748;28;20497;-74
2021/03/24 08:07:23;;;;;;;53.17;27.08;;;8.80;77.00;;;;;;5092405;28;20020;-74
2021/03/24 08:10:21;;;;;;;41.10;25.10;;;8.90;76.80;;;;;;5092244;28;20338;-74
2021/03/24 08:13:25;;;;;;;46.40;25.27;;;9.10;76.50;;;;;;5089639;28;20024;-73
2021/03/24 08:16:27;;;;;;;40.40;24.13;;;9.30;76.10;;;;;;5096267;28;20027;-74
2021/03/24 08:19:19;;;;;;;43.75;24.55;;;9.40;75.50;;;;;;5083332;28;20040;-74
2021/03/24 08:22:30;;;;;;;43.58;25.73;;;9.50;75.10;;;;;;5095942;28;20481;-74
2021/03/24 08:25:04;;;;;;;47.40;26.73;;;9.70;75.10;;;;;;5095352;28;20039;-74
2021/03/24 08:27:36;;;;;;;45.22;26.05;;;9.80;74.20;;;;;;5101244;28;20034;-74
2021/03/24 08:30:11;;;;;;;43.67;24.27;;;10.00;74.10;;;;;;5095559;28;20479;-74
2021/03/24 08:32:56;;;;;;;50.30;26.50;;;10.10;73.90;;;;;;5094140;28;20387;-74
2021/03/24 08:35:46;;;;;;;42.17;25.58;;;10.30;74.00;;;;;;5091375;28;20027;-74
2021/03/24 08:38:11;;;;;;;43.20;24.60;;;10.50;73.60;;;;;;5089149;28;20103;-74
2021/03/24 08:41:02;;;;;;;39.10;23.65;;;10.60;73.10;;;;;;5102703;28;20111;-74
2021/03/24 08:43:59;;;;;;;39.38;23.60;;;10.80;72.30;;;;;;5095493;28;20024;-74
2021/03/24 08:46:31;;;;;;;43.55;25.75;;;10.90;71.90;;;;;;5098130;27;20147;-74
2021/03/24 08:49:17;;;;;;;49.75;26.08;;;11.00;71.40;;;;;;5118508;27;20024;-74
2021/03/24 08:51:51;;;;;;;48.55;25.48;;;11.20;71.10;;;;;;5109371;28;20528;-74
2021/03/24 08:54:20;;;;;;;44.05;24.52;;;11.30;70.20;;;;;;5135706;27;20027;-74
2021/03/24 08:57:13;;;;;;;42.20;24.30;;;11.40;70.00;;;;;;5136242;27;20023;-74
2021/03/24 08:59:50;;;;;;;45.78;24.40;;;11.60;69.80;;;;;;5130568;27;20102;-74
2021/03/24 09:03:09;;;;;;;44.60;24.35;;;11.60;69.10;;;;;;5117552;27;20410;-74
2021/03/24 09:05:56;;;;;;;44.25;24.10;;;11.70;68.90;;;;;;5013151;28;20057;-74
2021/03/24 09:08:39;;;;;;;41.08;23.35;;;11.80;68.40;;;;;;5123647;27;20023;-74
2021/03/24 09:11:32;;;;;;;41.45;23.15;;;11.90;68.20;;;;;;5117564;27;20491;-74
2021/03/24 09:14:07;;;;;;;48.05;25.02;;;12.10;67.70;;;;;;5117332;27;20061;-74
2021/03/24 09:16:50;;;;;;;47.28;23.95;;;12.20;67.10;;;;;;5135882;27;20468;-74
2021/03/24 09:19:41;;;;;;;45.28;23.92;;;12.30;67.10;;;;;;5115618;28;20027;-75
2021/03/24 09:22:49;;;;;;;45.35;25.13;;;12.40;66.80;;;;;;5074759;27;20034;-74
2021/03/24 09:25:25;;;;;;;47.03;25.98;;;12.60;66.00;;;;;;5133620;27;20023;-75
2021/03/24 09:28:08;;;;;;;48.45;25.48;;;12.80;65.90;;;;;;5134771;27;20031;-74
2021/03/24 09:30:40;;;;;;;40.20;23.35;;;12.90;65.40;;;;;;5135226;27;20031;-75
2021/03/24 09:33:20;;;;;;;39.85;22.40;;;13.10;65.40;;;;;;5134811;27;20027;-74
2021/03/24 09:35:56;;;;;;;45.85;23.88;;;13.20;65.00;;;;;;5132942;27;20019;-74
2021/03/24 09:38:25;;;;;;;42.25;23.15;;;13.40;64.40;;;;;;5116607;27;20047;-75
2021/03/24 09:40:54;;;;;;;48.75;26.85;;;13.50;64.00;;;;;;5132936;27;20483;-74
2021/03/24 09:43:32;;;;;;;43.63;24.85;;;13.60;63.50;;;;;;5135266;27;20070;-75
2021/03/24 09:46:20;;;;;;;46.50;26.67;;;13.70;62.90;;;;;;5103706;27;20347;-74
2021/03/24 09:48:50;;;;;;;47.88;25.85;;;13.80;62.70;;;;;;5134538;27;20027;-74
2021/03/24 09:51:21;;;;;;;48.70;25.77;;;13.90;63.20;;;;;;5128876;27;20046;-74
2021/03/24 09:53:47;;;;;;;47.85;26.67;;;13.90;62.70;;;;;;5135556;27;20042;-74
2021/03/24 09:56:20;;;;;;;43.53;24.70;;;14.10;62.20;;;;;;5097406;27;20028;-74
2021/03/24 09:59:02;;;;;;;44.08;26.50;;;14.10;61.40;;;;;;5135336;27;20032;-75
2021/03/24 10:02:00;;;;;;;44.25;25.55;;;14.20;61.30;;;;;;5135113;27;20102;-74
2021/03/24 10:04:47;;;;;;;41.03;23.90;;;14.30;61.10;;;;;;5109156;27;20027;-74
2021/03/24 10:07:28;;;;;;;41.55;23.77;;;14.40;61.10;;;;;;5134720;27;20200;-74
2021/03/24 10:10:06;;;;;;;41.20;24.27;;;14.50;60.80;;;;;;5115817;27;20031;-74
2021/03/24 10:12:58;;;;;;;47.07;25.47;;;14.50;60.10;;;;;;5134729;27;20378;-74
2021/03/24 10:15:36;;;;;;;42.17;24.10;;;14.60;59.90;;;;;;5115929;27;20047;-74
2021/03/24 10:18:13;;;;;;;47.63;27.33;;;14.70;59.60;;;;;;5115563;27;20379;-74
2021/03/24 10:21:06;;;;;;;47.95;24.58;;;14.70;59.40;;;;;;5127526;27;20019;-74
2021/03/24 10:23:40;;;;;;;43.47;25.60;;;14.90;59.90;;;;;;5120924;27;20041;-74
2021/03/24 10:26:18;;;;;;;44.85;25.77;;;15.00;59.00;;;;;;5115413;27;20031;-74
2021/03/24 10:29:15;;;;;;;43.60;25.43;;;15.00;58.80;;;;;;5114706;27;20182;-74
2021/03/24 10:32:04;;;;;;;45.80;26.55;;;15.10;58.40;;;;;;5113821;27;20279;-74
2021/03/24 10:34:41;;;;;;;;;;;15.20;58.30;;;;;;5134223;27;20019;-74
2021/03/24 10:37:06;;;;;;;43.55;23.45;;;15.20;58.70;;;;;;5134503;27;19912;-74
2021/03/24 10:39:53;;;;;;;40.85;25.15;;;15.40;58.40;;;;;;5133543;27;20384;-74
2021/03/24 10:42:28;;;;;;;46.13;26.50;;;15.60;58.40;;;;;;5134606;27;20054;-75
2021/03/24 10:45:01;;;;;;;45.22;26.10;;;15.60;57.20;;;;;;5133706;27;20073;-75
2021/03/24 10:47:34;;;;;;;45.30;23.77;;;15.60;56.60;;;;;;5115493;27;20019;-74
2021/03/24 10:50:02;;;;;;;45.00;23.45;;;15.60;56.70;;;;;;5134071;27;20027;-74
2021/03/24 10:52:37;;;;;;;44.97;25.83;;;15.80;57.00;;;;;;5133338;27;20019;-74
2021/03/24 10:55:17;;;;;;;49.30;27.17;;;15.90;56.60;;;;;;5133990;27;20503;-74
2021/03/24 10:58:12;;;;;;;44.60;24.33;;;16.10;56.40;;;;;;5132633;27;20045;-74
2021/03/24 11:00:43;;;;;;;45.95;23.98;;;16.20;55.80;;;;;;5134226;27;20034;-74
2021/03/24 11:03:19;;;;;;;48.40;26.45;;;16.30;55.40;;;;;;5133542;27;20038;-74
2021/03/24 11:06:01;;;;;;;48.75;25.23;;;16.30;54.20;;;;;;5132716;27;20026;-74
2021/03/24 11:08:57;;;;;;;38.80;23.55;;;16.30;54.00;;;;;;5130913;27;20057;-75
2021/03/24 11:11:38;;;;;;;47.05;25.00;;;16.40;54.30;;;;;;5122744;27;20035;-75
2021/03/24 11:14:21;;;;;;;50.38;25.50;;;16.70;54.20;;;;;;5125911;27;20027;-75
2021/03/24 11:17:03;;;;;;;46.72;24.60;;;16.80;53.30;;;;;;5133656;27;20027;-75
2021/03/24 11:19:47;;;;;;;41.90;24.13;;;16.80;52.80;;;;;;5115296;28;20051;-75
2021/03/24 11:22:27;;;;;;;44.22;24.05;;;16.90;52.60;;;;;;5121178;27;20645;-75
2021/03/24 11:25:01;;;;;;;51.30;26.65;;;17.00;53.00;;;;;;5115110;28;20038;-75
2021/03/24 11:27:51;;;;;;;46.75;26.50;;;17.00;52.70;;;;;;5133167;27;20027;-75
2021/03/24 11:30:45;;;;;;;48.30;26.35;;;17.00;52.30;;;;;;5133473;27;20371;-75
2021/03/24 11:33:34;;;;;;;49.17;27.35;;;17.00;52.40;;;;;;5133598;28;20027;-75
2021/03/24 11:36:18;;;;;;;50.08;25.27;;;17.10;51.70;;;;;;5133612;28;20027;-75
2021/03/24 11:39:01;;;;;;;44.15;23.90;;;17.20;50.90;;;;;;5114982;27;20023;-74
2021/03/24 11:41:30;;;;;;;39.75;22.92;;;17.40;51.60;;;;;;5113510;28;20076;-75
2021/03/24 11:44:13;;;;;;;42.22;22.88;;;17.40;51.20;;;;;;5145425;27;20054;-75
2021/03/24 11:46:41;;;;;;;53.35;25.60;;;17.60;51.40;;;;;;5132642;27;20028;-74
2021/03/24 11:49:25;;;;;;;44.63;24.83;;;17.70;50.60;;;;;;5132924;27;20023;-75
2021/03/24 11:52:18;;;;;;;40.53;23.15;;;17.90;50.80;;;;;;5137403;27;20039;-75
2021/03/24 11:54:47;;;;;;;41.72;23.00;;;18.10;50.40;;;;;;5136325;27;20033;-75
2021/03/24 11:57:15;;;;;;;39.50;23.02;;;18.10;49.80;;;;;;5140894;27;20026;-75
2021/03/24 12:00:09;;;;;;;45.28;23.48;;;18.20;49.30;;;;;;5136690;27;20027;-75
2021/03/24 12:02:56;;;;;;;35.97;21.08;;;18.30;48.20;;;;;;5137909;27;20031;-75
2021/03/24 12:05:28;;;;;;;39.20;22.27;;;18.30;48.60;;;;;;5137095;27;20106;-75
2021/03/24 12:08:14;;;;;;;38.90;21.85;;;18.40;48.10;;;;;;5137298;27;20041;-75
2021/03/24 12:10:42;;;;;;;42.38;20.65;;;18.50;48.20;;;;;;5099437;27;20102;-75
2021/03/24 12:13:22;;;;;;;39.90;21.88;;;18.60;48.00;;;;;;5118979;27;20023;-75
2021/03/24 12:16:01;;;;;;;37.03;20.75;;;18.70;47.50;;;;;;5126928;27;20031;-75
2021/03/24 12:18:27;;;;;;;34.55;20.40;;;18.70;47.20;;;;;;5136708;27;20019;-75
2021/03/24 12:21:02;;;;;;;34.38;20.50;;;18.70;47.00;;;;;;5137048;27;20035;-75
2021/03/24 12:23:32;;;;;;;35.67;20.65;;;18.60;47.30;;;;;;5136969;27;20027;-75
2021/03/24 12:25:59;;;;;;;36.10;21.15;;;18.70;47.20;;;;;;5136225;27;20091;-75
2021/03/24 12:28:37;;;;;;;28.15;17.60;;;18.70;47.30;;;;;;5118591;27;20541;-75
2021/03/24 12:31:14;;;;;;;33.30;18.95;;;18.70;47.90;;;;;;5118431;27;20383;-75
2021/03/24 12:33:47;;;;;;;30.48;16.83;;;18.70;47.20;;;;;;5136687;27;20027;-75
2021/03/24 12:36:21;;;;;;;24.90;15.85;;;18.80;46.60;;;;;;5136366;27;20019;-75
2021/03/24 12:39:06;;;;;;;30.80;17.45;;;18.90;47.30;;;;;;5135936;27;20019;-75
2021/03/24 12:41:42;;;;;;;25.42;17.23;;;19.00;46.70;;;;;;5117557;27;20417;-75
2021/03/24 12:44:40;;;;;;;27.25;16.92;;;19.10;46.40;;;;;;5117606;27;20057;-75
2021/03/24 12:47:30;;;;;;;23.42;14.90;;;19.20;46.00;;;;;;5136845;27;20023;-75
2021/03/24 12:50:11;;;;;;;28.15;14.73;;;19.30;46.00;;;;;;5120816;27;20043;-75
2021/03/24 12:52:53;;;;;;;25.08;14.25;;;19.50;46.30;;;;;;5136593;27;20425;-75
2021/03/24 12:55:19;;;;;;;21.63;13.68;;;19.70;45.50;;;;;;5117551;27;20019;-75
2021/03/24 12:58:19;;;;;;;23.73;13.20;;;19.70;44.80;;;;;;5136435;27;20053;-74
2021/03/24 13:01:03;;;;;;;21.95;13.23;;;19.70;44.90;;;;;;5135280;27;20063;-75
2021/03/24 13:03:56;;;;;;;21.25;13.73;;;19.70;44.80;;;;;;5117230;27;20024;-75
2021/03/24 13:06:41;;;;;;;21.58;12.65;;;19.70;43.60;;;;;;5135881;27;20076;-75
2021/03/24 13:09:31;;;;;;;24.27;14.00;;;19.70;44.10;;;;;;5132359;27;20051;-75
2021/03/24 13:12:25;;;;;;;22.92;14.18;;;19.80;43.30;;;;;;5117122;27;20038;-75
2021/03/24 13:15:16;;;;;;;21.38;12.90;;;19.80;43.10;;;;;;5135471;27;20041;-75
2021/03/24 13:17:55;;;;;;;17.85;11.80;;;19.70;43.00;;;;;;5135520;27;20023;-75
2021/03/24 13:20:49;;;;;;;23.58;11.98;;;19.80;43.50;;;;;;5136005;27;20023;-75
2021/03/24 13:23:26;;;;;;;19.88;11.57;;;19.90;43.20;;;;;;5135900;27;20031;-75
2021/03/24 13:26:02;;;;;;;20.75;12.25;;;20.00;43.10;;;;;;5135136;27;20045;-75
2021/03/24 13:28:40;;;;;;;22.85;12.68;;;20.10;43.00;;;;;;5124010;27;20039;-75